Time;durP1;ratioP1;P1;durP2;ratioP2;P2;SDS_P1;SDS_P2;PMS_P1;PMS_P2;Temp;Humidity;BMP_temperature;BMP_pressure;BME280_temperature;BME280_humidity;BME280_pressure;Samples;Min_cycle;Max_cycle;Signal;HPM_P1;HPM_P2
2021/12/29 00:02:06;;;;;;;;;;;;;;;7.23;55.52;98633.38;4466234;32;35164;-77
2021/12/29 00:04:35;;;;;;;;;;;;;;;7.64;53.79;98628.37;4463991;32;34172;-76
2021/12/29 00:07:02;;;;;;;;;;;;;;;8.05;52.68;98635.69;4474276;32;32011;-76
2021/12/29 00:09:33;;;;;;;;;;;;;;;8.19;51.44;98631.91;4465252;32;34199;-76
2021/12/29 00:12:02;;;;;;;;;;;;;;;7.13;54.54;98639.56;4464368;32;35352;-76
2021/12/29 00:14:29;;;;;;;;;;;;;;;7.03;55.10;98634.13;4467146;32;33640;-74
2021/12/29 00:16:58;;;;;;;;;;;;;;;8.01;52.88;98634.25;4472903;32;32689;-72
2021/12/29 00:19:27;;;;;;;;;;;;;;;6.66;55.99;98636.09;4472010;32;32676;-72
2021/12/29 00:21:55;;;;;;;;;;;;;;;7.22;55.21;98622.84;4472208;32;33266;-73
2021/12/29 00:24:22;;;;;;;;;;;;;;;7.63;53.94;98629.37;4467887;32;34008;-73
2021/12/29 00:26:49;;;;;;;;;;;;;;;7.69;53.91;98623.53;4479555;32;32975;-73
2021/12/29 00:29:17;;;;;;;;;;;;;;;7.45;54.21;98624.56;4473054;32;35150;-72
2021/12/29 00:31:46;;;;;;;;;;;;;;;7.99;52.85;98614.87;4467178;32;34258;-72
2021/12/29 00:34:20;;;;;;;;;;;;;;;7.69;53.64;98605.75;4471434;32;32579;-71
2021/12/29 00:36:55;;;;;;;;;;;;;;;6.39;57.55;98609.78;4445373;32;859814;-71
2021/12/29 00:39:27;;;;;;;;;;;;;;;7.28;55.01;98608.22;4475808;32;32598;-71
2021/12/29 00:42:00;;;;;;;;;;;;;;;7.53;54.20;98604.44;4472489;32;34445;-73
2021/12/29 00:44:32;;;;;;;;;;;;;;;7.04;55.11;98595.06;4473841;32;33034;-72
2021/12/29 00:47:00;;;;;;;;;;;;;;;7.17;55.41;98604.59;4481000;32;33625;-71
2021/12/29 00:49:34;;;;;;;;;;;;;;;7.34;55.43;98607.72;4469706;32;37127;-72
2021/12/29 00:52:05;;;;;;;;;;;;;;;7.50;54.70;98602.03;4470904;32;34445;-72
2021/12/29 00:54:32;;;;;;;;;;;;;;;7.58;53.83;98607.59;4473166;32;33926;-73
2021/12/29 00:57:00;;;;;;;;;;;;;;;7.65;53.84;98611.47;4468971;32;33446;-72
2021/12/29 00:59:27;;;;;;;;;;;;;;;6.83;55.37;98610.84;4471705;32;33427;-72
2021/12/29 01:01:55;;;;;;;;;;;;;;;6.38;57.59;98603.63;4469739;32;34340;-72
2021/12/29 01:04:22;;;;;;;;;;;;;;;7.02;56.03;98597.81;4475443;32;34307;-72
2021/12/29 01:06:49;;;;;;;;;;;;;;;7.79;53.83;98597.00;4474013;32;33328;-71
2021/12/29 01:09:17;;;;;;;;;;;;;;;7.78;53.98;98595.34;4475488;32;34185;-70
2021/12/29 01:11:45;;;;;;;;;;;;;;;7.72;54.13;98588.69;4469377;32;34311;-71
2021/12/29 01:14:12;;;;;;;;;;;;;;;7.29;54.88;98586.81;4474561;32;34161;-71
2021/12/29 01:16:40;;;;;;;;;;;;;;;7.47;54.45;98592.47;4479267;32;33355;-71
2021/12/29 01:19:12;;;;;;;;;;;;;;;7.52;53.66;98587.62;4473706;32;34218;-73
2021/12/29 01:21:41;;;;;;;;;;;;;;;7.52;54.03;98589.47;4475215;32;34303;-72
2021/12/29 01:24:08;;;;;;;;;;;;;;;8.46;51.62;98586.13;4471701;32;34289;-74
2021/12/29 01:26:36;;;;;;;;;;;;;;;7.56;53.93;98574.91;4469912;32;33484;-73
2021/12/29 01:29:04;;;;;;;;;;;;;;;7.95;52.80;98581.47;4471362;32;33943;-73
2021/12/29 01:31:31;;;;;;;;;;;;;;;8.01;52.75;98570.28;4474976;32;33666;-72
2021/12/29 01:33:59;;;;;;;;;;;;;;;8.19;52.47;98567.09;4477341;32;35690;-72
2021/12/29 01:36:27;;;;;;;;;;;;;;;7.64;53.74;98583.13;4475550;32;33378;-71
2021/12/29 01:38:54;;;;;;;;;;;;;;;8.35;51.93;98588.81;4469661;32;33372;-72
2021/12/29 01:41:21;;;;;;;;;;;;;;;8.57;50.85;98594.06;4469639;32;34154;-72
2021/12/29 01:43:49;;;;;;;;;;;;;;;8.81;50.36;98598.28;4480644;32;34318;-73
2021/12/29 01:46:16;;;;;;;;;;;;;;;8.05;52.28;98589.53;4471999;32;33211;-72
2021/12/29 01:48:44;;;;;;;;;;;;;;;8.63;50.87;98588.22;4473319;32;34290;-72
2021/12/29 01:51:12;;;;;;;;;;;;;;;8.51;50.91;98597.25;4472015;32;33668;-73
2021/12/29 01:53:47;;;;;;;;;;;;;;;8.68;50.85;98602.97;4475740;32;35162;-73
2021/12/29 01:56:15;;;;;;;;;;;;;;;8.61;50.82;98608.00;4476318;32;33437;-73
2021/12/29 01:58:43;;;;;;;;;;;;;;;8.30;51.66;98610.50;4467785;32;33046;-74
2021/12/29 02:01:10;;;;;;;;;;;;;;;8.55;51.14;98604.00;4467447;32;34433;-73
2021/12/29 02:03:38;;;;;;;;;;;;;;;8.81;50.32;98600.94;4468419;32;34795;-75
2021/12/29 02:06:05;;;;;;;;;;;;;;;8.90;49.99;98605.50;4465008;32;33348;-77
2021/12/29 02:08:34;;;;;;;;;;;;;;;9.15;49.35;98601.56;4468539;32;33833;-75
2021/12/29 02:11:04;;;;;;;;;;;;;;;8.87;50.10;98595.09;4467686;32;34095;-76
2021/12/29 02:13:31;;;;;;;;;;;;;;;9.04;49.85;98594.47;4474411;32;33977;-76
2021/12/29 02:15:59;;;;;;;;;;;;;;;8.98;49.85;98595.00;4473005;32;32372;-76
2021/12/29 02:18:27;;;;;;;;;;;;;;;9.14;49.20;98599.00;4470234;32;33609;-76
2021/12/29 02:20:54;;;;;;;;;;;;;;;8.88;50.17;98601.25;4472543;31;34550;-76
2021/12/29 02:23:27;;;;;;;;;;;;;;;8.83;50.09;98599.84;4467325;32;34219;-76
2021/12/29 02:25:55;;;;;;;;;;;;;;;9.00;49.76;98601.06;4471785;32;33716;-76
2021/12/29 02:28:27;;;;;;;;;;;;;;;9.11;49.48;98602.78;4465764;32;34083;-76
2021/12/29 02:30:55;;;;;;;;;;;;;;;9.24;49.06;98602.56;4465810;32;34364;-76
2021/12/29 02:33:24;;;;;;;;;;;;;;;9.09;49.56;98597.59;4465944;32;35713;-76
2021/12/29 02:35:52;;;;;;;;;;;;;;;8.85;50.17;98600.53;4471503;32;34169;-73
2021/12/29 02:38:24;;;;;;;;;;;;;;;9.39;48.72;98601.22;4466882;32;35111;-73
2021/12/29 02:40:53;;;;;;;;;;;;;;;9.38;48.61;98598.69;4468511;32;34022;-73
2021/12/29 02:43:22;;;;;;;;;;;;;;;9.44;48.52;98606.19;4470858;31;34672;-77
2021/12/29 02:45:53;;;;;;;;;;;;;;;8.86;49.98;98602.25;4469672;32;33112;-74
2021/12/29 02:48:23;;;;;;;;;;;;;;;8.68;50.58;98608.31;4473380;32;34047;-74
2021/12/29 02:50:55;;;;;;;;;;;;;;;9.24;49.14;98602.56;4467594;32;34214;-73
2021/12/29 02:53:24;;;;;;;;;;;;;;;9.20;49.20;98601.16;4470307;32;33328;-75
2021/12/29 02:55:54;;;;;;;;;;;;;;;9.05;49.19;98606.84;4465985;32;33214;-78
2021/12/29 02:58:22;;;;;;;;;;;;;;;9.53;48.21;98608.88;4471990;32;35059;-74
2021/12/29 03:00:50;;;;;;;;;;;;;;;9.48;48.38;98610.25;4462374;32;33971;-72
2021/12/29 03:03:18;;;;;;;;;;;;;;;9.02;49.41;98607.13;4473535;32;33933;-72
2021/12/29 03:05:46;;;;;;;;;;;;;;;9.48;48.61;98605.75;4466801;32;32668;-74
2021/12/29 03:08:14;;;;;;;;;;;;;;;9.71;47.78;98602.88;4471020;32;34109;-77
2021/12/29 03:10:41;;;;;;;;;;;;;;;9.73;47.84;98603.59;4466564;32;34158;-72
2021/12/29 03:13:09;;;;;;;;;;;;;;;9.74;47.86;98602.59;4464860;32;33939;-72
2021/12/29 03:15:37;;;;;;;;;;;;;;;9.50;48.14;98598.47;4473147;32;33598;-72
2021/12/29 03:18:05;;;;;;;;;;;;;;;9.81;47.38;98598.37;4471615;32;34153;-78
2021/12/29 03:20:33;;;;;;;;;;;;;;;9.60;47.91;98597.63;4467321;32;34955;-75
2021/12/29 03:23:00;;;;;;;;;;;;;;;9.53;48.23;98597.31;4466901;32;33890;-75
2021/12/29 03:25:28;;;;;;;;;;;;;;;9.15;49.32;98600.69;4475801;32;33185;-76
2021/12/29 03:28:00;;;;;;;;;;;;;;;9.41;48.59;98598.44;4465633;32;33833;-76
2021/12/29 03:30:27;;;;;;;;;;;;;;;9.70;47.89;98599.34;4476504;32;34477;-75
2021/12/29 03:33:03;;;;;;;;;;;;;;;9.57;47.90;98599.59;4468887;32;32890;-76
2021/12/29 03:35:31;;;;;;;;;;;;;;;9.38;48.25;98594.19;4468203;32;33303;-74
2021/12/29 03:37:59;;;;;;;;;;;;;;;9.06;49.28;98597.84;4469257;32;34976;-75
2021/12/29 03:40:26;;;;;;;;;;;;;;;9.57;48.04;98602.28;4465233;32;37081;-74
2021/12/29 03:42:54;;;;;;;;;;;;;;;9.95;46.98;98603.34;4474099;32;33246;-76
2021/12/29 03:45:22;;;;;;;;;;;;;;;8.75;49.86;98606.81;4464270;32;32882;-75
2021/12/29 03:47:49;;;;;;;;;;;;;;;8.81;49.82;98607.13;4468002;32;32928;-77
2021/12/29 03:50:17;;;;;;;;;;;;;;;9.84;47.21;98614.16;4472047;32;35964;-74
2021/12/29 03:52:46;;;;;;;;;;;;;;;8.53;50.69;98621.09;4476411;32;34406;-74
2021/12/29 03:55:13;;;;;;;;;;;;;;;9.36;48.88;98611.34;4465892;32;33386;-75
2021/12/29 03:57:40;;;;;;;;;;;;;;;10.00;46.90;98610.94;4474649;32;33894;-71
2021/12/29 04:00:09;;;;;;;;;;;;;;;9.62;47.77;98604.53;4470688;32;35337;-74
2021/12/29 04:02:36;;;;;;;;;;;;;;;9.61;47.66;98607.34;4472821;32;35311;-74
2021/12/29 04:05:05;;;;;;;;;;;;;;;8.84;49.62;98619.38;4471051;32;33652;-73
2021/12/29 04:07:32;;;;;;;;;;;;;;;9.26;48.39;98604.13;4464757;32;34179;-73
2021/12/29 04:09:59;;;;;;;;;;;;;;;9.44;48.23;98611.50;4476322;31;33627;-71
2021/12/29 04:12:27;;;;;;;;;;;;;;;9.88;46.98;98614.72;4472893;32;35095;-72
2021/12/29 04:14:54;;;;;;;;;;;;;;;9.86;46.84;98620.22;4469389;32;33119;-71
2021/12/29 04:17:36;;;;;;;;;;;;;;;9.64;47.40;98618.59;4466472;32;32659;-72
2021/12/29 04:22:54;;;;;;;;;;;;;;;10.03;46.46;98626.69;4477001;32;34187;-73
2021/12/29 04:25:24;;;;;;;;;;;;;;;10.18;45.93;98641.38;4467101;32;33012;-73
2021/12/29 04:27:52;;;;;;;;;;;;;;;10.16;46.13;98639.81;4466891;32;32618;-72
2021/12/29 04:30:20;;;;;;;;;;;;;;;10.03;46.31;98642.75;4467305;32;33156;-71
2021/12/29 04:32:47;;;;;;;;;;;;;;;9.75;47.20;98633.66;4470530;32;33050;-71
2021/12/29 04:35:14;;;;;;;;;;;;;;;9.59;47.52;98631.50;4473778;32;33603;-71
2021/12/29 04:37:42;;;;;;;;;;;;;;;9.69;47.41;98640.38;4468903;32;35096;-72
2021/12/29 04:40:09;;;;;;;;;;;;;;;9.78;47.16;98630.72;4474318;32;35299;-73
2021/12/29 04:42:37;;;;;;;;;;;;;;;9.69;47.33;98632.38;4469797;32;33931;-74
2021/12/29 04:45:04;;;;;;;;;;;;;;;9.69;47.45;98632.38;4463966;32;33239;-75
2021/12/29 04:47:35;;;;;;;;;;;;;;;9.69;47.63;98632.38;4465587;32;34220;-75
2021/12/29 04:50:03;;;;;;;;;;;;;;;9.99;47.06;98641.34;4465052;32;33491;-75
2021/12/29 04:52:30;;;;;;;;;;;;;;;10.17;46.71;98642.31;4465446;32;34148;-74
2021/12/29 04:54:58;;;;;;;;;;;;;;;10.09;46.63;98642.19;4479445;31;33671;-76
2021/12/29 04:57:26;;;;;;;;;;;;;;;10.47;45.75;98632.53;4474259;32;32943;-74
2021/12/29 04:59:53;;;;;;;;;;;;;;;10.54;45.32;98641.69;4471656;31;34379;-78
2021/12/29 05:02:20;;;;;;;;;;;;;;;10.51;45.60;98646.47;4478689;32;34414;-74
2021/12/29 05:04:57;;;;;;;;;;;;;;;10.71;45.07;98640.12;4473943;32;33472;-73
2021/12/29 05:10:10;;;;;;;;;;;;;;;11.07;44.18;98640.34;4466783;32;34400;-77
2021/12/29 05:12:38;;;;;;;;;;;;;;;11.09;44.06;98639.22;4474242;32;34076;-75
2021/12/29 05:15:05;;;;;;;;;;;;;;;10.98;44.39;98639.38;4470265;32;32640;-77
2021/12/29 05:17:33;;;;;;;;;;;;;;;10.77;44.70;98644.06;4472121;32;33918;-75
2021/12/29 05:20:00;;;;;;;;;;;;;;;11.03;44.38;98637.09;4468445;32;34353;-77
2021/12/29 05:22:28;;;;;;;;;;;;;;;10.87;44.71;98639.53;4466068;32;32847;-77
2021/12/29 05:24:55;;;;;;;;;;;;;;;10.85;44.62;98639.69;4473970;32;33413;-76
2021/12/29 05:27:22;;;;;;;;;;;;;;;11.06;44.34;98636.81;4477192;31;34119;-77
2021/12/29 05:29:49;;;;;;;;;;;;;;;11.16;44.06;98637.63;4467413;32;34309;-77
2021/12/29 05:32:17;;;;;;;;;;;;;;;11.14;44.12;98645.00;4467878;31;35570;-77
2021/12/29 05:34:44;;;;;;;;;;;;;;;10.94;44.45;98648.69;4466765;32;33352;-78
2021/12/29 05:37:11;;;;;;;;;;;;;;;11.21;43.88;98647.94;4465345;32;33140;-78
2021/12/29 05:39:39;;;;;;;;;;;;;;;11.12;44.06;98644.28;4469877;32;34384;-78
2021/12/29 05:42:06;;;;;;;;;;;;;;;11.12;44.11;98651.47;4472493;31;35608;-76
2021/12/29 05:44:33;;;;;;;;;;;;;;;11.39;43.45;98654.19;4472716;32;33049;-77
2021/12/29 05:47:01;;;;;;;;;;;;;;;11.29;43.72;98658.75;4474007;32;34339;-77
2021/12/29 05:49:28;;;;;;;;;;;;;;;11.13;44.02;98670.06;4469955;32;34329;-76
2021/12/29 05:51:56;;;;;;;;;;;;;;;11.33;43.43;98660.16;4472599;32;33970;-78
2021/12/29 05:54:23;;;;;;;;;;;;;;;11.47;43.13;98664.19;4466496;32;33414;-79
2021/12/29 05:56:50;;;;;;;;;;;;;;;11.30;43.46;98663.12;4474364;32;34153;-78
2021/12/29 05:59:18;;;;;;;;;;;;;;;11.25;43.58;98668.06;4475096;32;34395;-77
2021/12/29 06:01:46;;;;;;;;;;;;;;;11.31;43.51;98662.13;4478291;32;34718;-77
2021/12/29 06:04:13;;;;;;;;;;;;;;;11.00;44.15;98666.84;4476109;32;33336;-78
2021/12/29 06:06:41;;;;;;;;;;;;;;;11.15;43.93;98668.09;4472039;32;34244;-77
2021/12/29 06:09:08;;;;;;;;;;;;;;;11.35;43.38;98671.56;4475187;32;34154;-77
2021/12/29 06:11:36;;;;;;;;;;;;;;;10.92;44.34;98672.94;4472267;32;32513;-77
2021/12/29 06:14:03;;;;;;;;;;;;;;;11.16;43.64;98672.44;4478827;32;33684;-77
2021/12/29 06:16:30;;;;;;;;;;;;;;;11.35;43.26;98668.88;4470408;32;34190;-78
2021/12/29 06:18:58;;;;;;;;;;;;;;;11.31;43.33;98677.34;4471692;32;34351;-78
2021/12/29 06:21:26;;;;;;;;;;;;;;;11.06;43.92;98670.78;4478416;32;32685;-77
2021/12/29 06:23:53;;;;;;;;;;;;;;;11.20;43.62;98675.69;4474068;32;33152;-77
2021/12/29 06:26:21;;;;;;;;;;;;;;;11.48;42.75;98679.28;4475211;32;35429;-76
2021/12/29 06:28:49;;;;;;;;;;;;;;;11.40;43.04;98676.50;4482467;32;35258;-74
2021/12/29 06:31:16;;;;;;;;;;;;;;;11.27;43.51;98675.94;4474218;32;35062;-70
2021/12/29 06:33:46;;;;;;;;;;;;;;;10.96;44.06;98678.84;4474018;32;33715;-70
2021/12/29 06:36:13;;;;;;;;;;;;;;;11.18;43.72;98675.00;4476124;32;35044;-70
2021/12/29 06:38:40;;;;;;;;;;;;;;;11.31;43.36;98675.53;4474053;32;34163;-70
2021/12/29 06:41:08;;;;;;;;;;;;;;;11.18;43.69;98685.72;4465632;32;34990;-71
2021/12/29 06:43:35;;;;;;;;;;;;;;;11.43;42.62;98679.72;4471330;32;32996;-71
2021/12/29 06:46:02;;;;;;;;;;;;;;;11.23;43.01;98680.75;4474750;32;32951;-71
2021/12/29 06:48:30;;;;;;;;;;;;;;;11.25;43.28;98691.34;4474761;32;32852;-70
2021/12/29 06:50:57;;;;;;;;;;;;;;;11.31;42.98;98701.47;4475960;32;35047;-71
2021/12/29 06:53:27;;;;;;;;;;;;;;;11.32;43.02;98701.31;4472290;32;34508;-71
2021/12/29 06:55:55;;;;;;;;;;;;;;;11.20;43.60;98713.16;4466947;32;35017;-70
2021/12/29 06:58:22;;;;;;;;;;;;;;;11.33;43.25;98712.87;4470488;32;34621;-69
2021/12/29 07:00:49;;;;;;;;;;;;;;;11.43;42.82;98716.38;4467341;32;35174;-69
2021/12/29 07:03:17;;;;;;;;;;;;;;;10.94;44.21;98710.25;4466617;32;33372;-71
2021/12/29 07:05:44;;;;;;;;;;;;;;;10.60;45.02;98712.53;4479244;32;34824;-70
2021/12/29 07:08:13;;;;;;;;;;;;;;;10.53;45.22;98708.69;4482204;32;34263;-69
2021/12/29 07:10:42;;;;;;;;;;;;;;;10.95;44.28;98710.12;4470345;32;34372;-69
2021/12/29 07:13:09;;;;;;;;;;;;;;;10.92;44.20;98717.59;4470699;32;33372;-70
2021/12/29 07:15:37;;;;;;;;;;;;;;;11.18;43.75;98718.69;4473602;32;35034;-70
2021/12/29 07:18:04;;;;;;;;;;;;;;;11.36;43.16;98723.28;4473439;32;33328;-70
2021/12/29 07:20:31;;;;;;;;;;;;;;;11.32;43.26;98721.91;4469047;32;34279;-70
2021/12/29 07:22:59;;;;;;;;;;;;;;;11.19;43.14;98723.03;4473059;32;33842;-70
2021/12/29 07:25:29;;;;;;;;;;;;;;;11.30;42.94;98722.06;4467603;32;32483;-70
2021/12/29 07:27:56;;;;;;;;;;;;;;;10.74;44.77;98738.84;4467850;32;34386;-71
2021/12/29 07:30:23;;;;;;;;;;;;;;;10.39;45.64;98734.03;4467837;32;34101;-70
2021/12/29 07:32:51;;;;;;;;;;;;;;;10.67;45.08;98735.91;4467124;32;33546;-70
2021/12/29 07:35:18;;;;;;;;;;;;;;;11.09;43.89;98734.78;4476071;32;34128;-71
2021/12/29 07:37:45;;;;;;;;;;;;;;;10.69;44.96;98741.13;4477301;32;34403;-71
2021/12/29 07:40:13;;;;;;;;;;;;;;;10.37;45.74;98741.34;4469016;32;34336;-71
2021/12/29 07:42:42;;;;;;;;;;;;;;;10.44;45.75;98738.00;4468002;32;33640;-71
2021/12/29 07:45:10;;;;;;;;;;;;;;;10.94;44.52;98745.91;4472869;32;34918;-71
2021/12/29 07:47:41;;;;;;;;;;;;;;;10.62;45.29;98748.00;4471729;32;34479;-71
2021/12/29 07:50:09;;;;;;;;;;;;;;;10.91;44.58;98748.88;4472519;32;34633;-71
2021/12/29 07:52:56;;;;;;;;;;;;;;;11.06;44.15;98749.28;4467769;32;34301;-71
2021/12/29 07:55:23;;;;;;;;;;;;;;;11.12;44.34;98750.56;4464829;32;35231;-71
2021/12/29 07:57:51;;;;;;;;;;;;;;;11.45;43.54;98753.75;4475591;32;32673;-71
2021/12/29 08:00:18;;;;;;;;;;;;;;;11.67;42.80;98753.41;4471612;32;35207;-70
2021/12/29 08:02:47;;;;;;;;;;;;;;;11.75;42.46;98742.81;4466139;32;34558;-71
2021/12/29 08:05:15;;;;;;;;;;;;;;;11.82;42.15;98743.91;4465377;32;33707;-70
2021/12/29 08:07:45;;;;;;;;;;;;;;;11.63;42.56;98760.06;4464900;32;34017;-70
2021/12/29 08:10:13;;;;;;;;;;;;;;;11.96;42.14;98756.00;4469490;32;35521;-71
2021/12/29 08:12:40;;;;;;;;;;;;;;;12.01;41.97;98752.91;4470716;32;33541;-71
2021/12/29 08:15:08;;;;;;;;;;;;;;;11.79;42.56;98762.97;4469483;32;34113;-71
2021/12/29 08:17:36;;;;;;;;;;;;;;;11.95;42.38;98764.22;4465844;32;32632;-70
2021/12/29 08:20:04;;;;;;;;;;;;;;;12.11;41.75;98761.75;4467438;32;33940;-70
2021/12/29 08:22:32;;;;;;;;;;;;;;;12.09;41.85;98777.97;4470566;32;34489;-71
2021/12/29 08:24:59;;;;;;;;;;;;;;;12.60;40.98;98770.34;4469140;31;34438;-71
2021/12/29 08:27:26;;;;;;;;;;;;;;;12.64;40.71;98770.91;4468298;32;34142;-71
2021/12/29 08:29:54;;;;;;;;;;;;;;;12.87;40.24;98776.66;4467626;31;33386;-71
2021/12/29 08:32:21;;;;;;;;;;;;;;;12.66;40.42;98790.41;4463567;32;33585;-71
2021/12/29 08:34:49;;;;;;;;;;;;;;;13.13;39.45;98790.16;4467792;32;34303;-70
2021/12/29 08:37:16;;;;;;;;;;;;;;;13.29;39.01;98793.06;4469705;31;35460;-70
2021/12/29 08:39:44;;;;;;;;;;;;;;;13.37;38.77;98793.09;4466356;32;34855;-70
2021/12/29 08:42:11;;;;;;;;;;;;;;;13.37;39.12;98794.97;4469695;31;34371;-71
2021/12/29 08:44:42;;;;;;;;;;;;;;;13.20;39.36;98797.47;4470195;32;35448;-70
2021/12/29 08:47:10;;;;;;;;;;;;;;;13.28;39.38;98797.56;4463221;32;34318;-71
2021/12/29 08:49:37;;;;;;;;;;;;;;;13.68;38.11;98803.44;4469879;32;35241;-71
2021/12/29 08:52:05;;;;;;;;;;;;;;;13.72;38.10;98807.50;4467179;31;33554;-70
2021/12/29 08:54:34;;;;;;;;;;;;;;;13.88;37.67;98806.75;4463459;32;34293;-71
2021/12/29 08:57:02;;;;;;;;;;;;;;;13.94;37.39;98803.44;4472990;32;34472;-73
2021/12/29 08:59:29;;;;;;;;;;;;;;;13.84;38.04;98805.41;4466059;32;31836;-73
2021/12/29 09:01:57;;;;;;;;;;;;;;;12.81;40.05;98815.75;4469065;32;33591;-71
2021/12/29 09:04:25;;;;;;;;;;;;;;;13.33;39.09;98801.66;4473241;31;35141;-72
2021/12/29 09:06:57;;;;;;;;;;;;;;;12.71;39.89;98801.50;4475262;32;34224;-72
2021/12/29 09:09:24;;;;;;;;;;;;;;;13.32;39.39;98799.94;4466975;31;35166;-72
2021/12/29 09:11:53;;;;;;;;;;;;;;;13.27;39.39;98801.25;4468413;32;33658;-71
2021/12/29 09:14:21;;;;;;;;;;;;;;;13.35;39.40;98802.31;4469704;32;35292;-71
2021/12/29 09:16:48;;;;;;;;;;;;;;;13.84;38.61;98802.69;4472425;32;34381;-71
2021/12/29 09:19:15;;;;;;;;;;;;;;;13.82;38.95;98796.63;4467425;32;36197;-71
2021/12/29 09:21:44;;;;;;;;;;;;;;;13.72;39.16;98796.72;4470341;32;32789;-71
2021/12/29 09:24:12;;;;;;;;;;;;;;;13.88;38.97;98796.84;4467133;32;34313;-70
2021/12/29 09:26:39;;;;;;;;;;;;;;;14.29;38.24;98782.75;4471447;31;34241;-73
2021/12/29 09:29:06;;;;;;;;;;;;;;;14.22;38.40;98782.53;4472416;32;35240;-71
2021/12/29 09:31:34;;;;;;;;;;;;;;;14.25;38.30;98776.00;4464358;32;33246;-70
2021/12/29 09:34:01;;;;;;;;;;;;;;;14.41;37.81;98776.06;4466360;32;35219;-70
2021/12/29 09:36:29;;;;;;;;;;;;;;;14.44;37.74;98771.22;4468360;31;35399;-70
2021/12/29 09:38:56;;;;;;;;;;;;;;;14.11;38.34;98764.00;4469579;32;35187;-70
2021/12/29 09:41:24;;;;;;;;;;;;;;;13.69;39.38;98764.78;4470390;32;33428;-71
2021/12/29 09:43:51;;;;;;;;;;;;;;;13.32;39.84;98757.78;4467363;32;33751;-70
2021/12/29 09:46:19;;;;;;;;;;;;;;;13.86;38.98;98763.88;4475802;32;34484;-70
2021/12/29 09:48:47;;;;;;;;;;;;;;;14.25;38.03;98758.00;4472969;32;34480;-70
2021/12/29 09:51:15;;;;;;;;;;;;;;;14.34;38.21;98759.72;4471425;32;34504;-70
2021/12/29 09:53:43;;;;;;;;;;;;;;;14.38;38.13;98760.22;4470994;32;34004;-69
2021/12/29 09:56:11;;;;;;;;;;;;;;;14.37;38.39;98758.56;4472535;32;33228;-71
2021/12/29 09:58:39;;;;;;;;;;;;;;;14.48;38.01;98757.41;4474352;32;34387;-70
2021/12/29 10:01:07;;;;;;;;;;;;;;;14.31;38.78;98748.44;4475154;32;33365;-70
2021/12/29 10:03:36;;;;;;;;;;;;;;;14.23;39.24;98740.34;4467987;32;34302;-70
2021/12/29 10:06:05;;;;;;;;;;;;;;;14.66;38.19;98747.38;4470762;32;33629;-72
2021/12/29 10:08:33;;;;;;;;;;;;;;;14.63;38.07;98745.03;4466311;32;34027;-70
2021/12/29 10:11:03;;;;;;;;;;;;;;;14.58;38.39;98742.84;4466335;32;32061;-71
2021/12/29 10:13:35;;;;;;;;;;;;;;;14.71;37.96;98746.91;4470532;31;33006;-71
2021/12/29 10:16:07;;;;;;;;;;;;;;;14.67;37.82;98752.63;4476915;32;35287;-72
2021/12/29 10:18:37;;;;;;;;;;;;;;;14.60;38.26;98740.81;4469327;32;34092;-70
2021/12/29 10:21:06;;;;;;;;;;;;;;;14.51;38.32;98741.81;4470471;32;33463;-70
2021/12/29 10:23:35;;;;;;;;;;;;;;;14.31;38.56;98746.56;4473197;32;34311;-71
2021/12/29 10:26:12;;;;;;;;;;;;;;;14.46;38.39;98744.13;4473609;31;34480;-70
2021/12/29 10:28:44;;;;;;;;;;;;;;;14.53;38.36;98738.94;4466377;32;34189;-71
2021/12/29 10:31:13;;;;;;;;;;;;;;;14.58;38.35;98742.84;4477156;31;33532;-70
2021/12/29 10:33:41;;;;;;;;;;;;;;;14.66;38.50;98761.69;4470101;32;34246;-71
2021/12/29 10:36:12;;;;;;;;;;;;;;;14.64;38.32;98747.56;4468800;32;35021;-71
2021/12/29 10:38:40;;;;;;;;;;;;;;;14.45;39.34;98755.91;4468664;32;33177;-71
2021/12/29 10:41:09;;;;;;;;;;;;;;;14.47;39.03;98756.56;4464554;32;32390;-71
2021/12/29 10:43:40;;;;;;;;;;;;;;;14.18;39.95;98757.81;4467052;32;33282;-70
2021/12/29 10:46:17;;;;;;;;;;;;;;;14.34;39.66;98748.94;4466384;31;34168;-70
2021/12/29 10:48:46;;;;;;;;;;;;;;;13.68;40.76;98755.03;4465830;32;35300;-71
2021/12/29 10:51:14;;;;;;;;;;;;;;;13.37;41.53;98752.78;4467867;32;34893;-72
2021/12/29 10:53:41;;;;;;;;;;;;;;;13.34;41.57;98747.72;4469510;31;33681;-70
2021/12/29 10:56:18;;;;;;;;;;;;;;;13.49;41.59;98748.84;4466349;32;34421;-71
2021/12/29 10:58:46;;;;;;;;;;;;;;;13.58;41.26;98754.28;4470397;32;34316;-71
2021/12/29 11:01:13;;;;;;;;;;;;;;;13.31;41.91;98755.25;4465259;32;33009;-71
2021/12/29 11:03:45;;;;;;;;;;;;;;;12.49;43.18;98757.16;4463926;32;34426;-72
2021/12/29 11:06:15;;;;;;;;;;;;;;;13.00;42.60;98755.62;4469082;32;33963;-70
2021/12/29 11:08:45;;;;;;;;;;;;;;;12.30;43.54;98761.66;4465917;31;34479;-70
2021/12/29 11:11:12;;;;;;;;;;;;;;;12.75;42.79;98765.31;4466960;32;32522;-71
2021/12/29 11:13:41;;;;;;;;;;;;;;;12.77;43.00;98758.78;4473324;31;35303;-72
2021/12/29 11:16:09;;;;;;;;;;;;;;;11.54;45.44;98761.75;4477387;32;34144;-70
2021/12/29 11:18:47;;;;;;;;;;;;;;;11.00;46.54;98765.91;4470228;32;35034;-70
2021/12/29 11:21:25;;;;;;;;;;;;;;;10.59;48.21;98764.34;4473445;32;33485;-70
2021/12/29 11:23:52;;;;;;;;;;;;;;;11.04;47.53;98759.28;4470039;32;33861;-70
2021/12/29 11:26:27;;;;;;;;;;;;;;;11.66;46.53;98767.81;4472484;32;33401;-70
2021/12/29 11:29:01;;;;;;;;;;;;;;;11.73;45.55;98768.06;4473223;32;35246;-70
2021/12/29 11:31:37;;;;;;;;;;;;;;;9.94;50.10;98769.19;4473656;31;33282;-70
2021/12/29 11:34:18;;;;;;;;;;;;;;;9.38;51.41;98767.78;4464842;32;33867;-72
2021/12/29 11:36:48;;;;;;;;;;;;;;;9.17;51.83;98772.28;4472001;32;33451;-70
2021/12/29 11:39:16;;;;;;;;;;;;;;;10.28;49.37;98769.78;4467066;32;32586;-69
2021/12/29 11:41:44;;;;;;;;;;;;;;;10.82;47.90;98767.59;4459481;31;32629;-71
2021/12/29 11:44:11;;;;;;;;;;;;;;;11.11;46.88;98770.28;4468274;32;34171;-70
2021/12/29 11:46:38;;;;;;;;;;;;;;;11.28;46.49;98766.87;4466325;32;34137;-70
2021/12/29 11:49:06;;;;;;;;;;;;;;;11.52;46.18;98776.28;4468097;32;33796;-70
2021/12/29 11:51:36;;;;;;;;;;;;;;;11.71;45.48;98784.28;4463283;32;33575;-69
2021/12/29 11:54:07;;;;;;;;;;;;;;;11.91;45.05;98787.81;4470983;32;34085;-70
2021/12/29 11:56:39;;;;;;;;;;;;;;;11.94;44.88;98783.97;4469429;31;35251;-69
2021/12/29 11:59:06;;;;;;;;;;;;;;;12.00;44.50;98780.69;4471269;32;34469;-70
2021/12/29 12:01:53;;;;;;;;;;;;;;;11.94;44.57;98781.28;4470206;32;34280;-69
2021/12/29 12:04:21;;;;;;;;;;;;;;;11.90;44.46;98786.09;4472868;32;34265;-70
2021/12/29 12:06:49;;;;;;;;;;;;;;;12.00;44.48;98786.06;4470823;32;34405;-70
2021/12/29 12:09:17;;;;;;;;;;;;;;;11.91;44.80;98790.47;4470359;32;33677;-71
2021/12/29 12:11:48;;;;;;;;;;;;;;;11.76;44.92;98786.53;4474209;32;31915;-72
2021/12/29 12:14:18;;;;;;;;;;;;;;;11.69;45.56;98793.47;4475372;32;33727;-71
2021/12/29 12:16:52;;;;;;;;;;;;;;;11.76;45.26;98799.94;4470441;32;34899;-70
2021/12/29 12:19:21;;;;;;;;;;;;;;;11.64;45.80;98794.75;4465712;32;34165;-71
2021/12/29 12:22:00;;;;;;;;;;;;;;;11.58;45.81;98789.94;4467139;32;33825;-70
2021/12/29 12:24:27;;;;;;;;;;;;;;;11.74;45.72;98800.06;4468720;32;34353;-71
2021/12/29 12:27:02;;;;;;;;;;;;;;;11.68;45.97;98794.44;4469201;32;34120;-71
2021/12/29 12:29:31;;;;;;;;;;;;;;;11.58;46.25;98794.47;4476580;32;35198;-71
2021/12/29 12:32:27;;;;;;;;;;;;;;;11.71;45.74;98797.69;4471643;32;33144;-73
2021/12/29 12:34:56;;;;;;;;;;;;;;;11.35;46.65;98794.78;4460998;32;32681;-72
2021/12/29 12:37:31;;;;;;;;;;;;;;;10.88;48.30;98791.13;4477105;32;34381;-72
2021/12/29 12:40:08;;;;;;;;;;;;;;;10.99;48.12;98798.19;4473396;32;34969;-71
2021/12/29 12:42:37;;;;;;;;;;;;;;;11.11;47.93;98803.28;4473289;32;33544;-72
2021/12/29 12:45:15;;;;;;;;;;;;;;;11.24;47.89;98803.00;4470931;32;34070;-71
2021/12/29 12:47:43;;;;;;;;;;;;;;;11.07;48.09;98804.53;4469700;32;34092;-73
2021/12/29 12:50:10;;;;;;;;;;;;;;;11.31;47.70;98804.09;4475757;32;34010;-71
2021/12/29 12:52:39;;;;;;;;;;;;;;;11.52;47.06;98803.94;4474158;32;33391;-71
2021/12/29 12:55:09;;;;;;;;;;;;;;;11.72;46.76;98801.19;4475840;32;34186;-71
2021/12/29 12:57:50;;;;;;;;;;;;;;;11.78;46.85;98806.84;4474597;32;34403;-71
2021/12/29 13:00:18;;;;;;;;;;;;;;;11.96;45.97;98808.81;4474446;32;35493;-72
2021/12/29 13:03:08;;;;;;;;;;;;;;;11.90;46.41;98823.62;4476058;32;33316;-71
2021/12/29 13:05:39;;;;;;;;;;;;;;;12.18;45.81;98829.06;4469867;32;35682;-71